sensor_id;sensor_type;location;lat;lon;timestamp;P1;durP1;ratioP1;P2;durP2;ratioP2
4933;SDS011;2482;49.154;8.254;2023-09-08T00:02:24;8.83;;;6.07;;
4933;SDS011;2482;49.154;8.254;2023-09-08T00:04:54;7.70;;;5.70;;
4933;SDS011;2482;49.154;8.254;2023-09-08T00:07:22;11.93;;;6.17;;
4933;SDS011;2482;49.154;8.254;2023-09-08T00:09:49;8.20;;;5.30;;
4933;SDS011;2482;49.154;8.254;2023-09-08T00:12:16;9.77;;;5.30;;
4933;SDS011;2482;49.154;8.254;2023-09-08T00:14:43;8.73;;;5.37;;
4933;SDS011;2482;49.154;8.254;2023-09-08T00:17:11;7.10;;;5.23;;
4933;SDS011;2482;49.154;8.254;2023-09-08T00:19:38;7.70;;;5.27;;
4933;SDS011;2482;49.154;8.254;2023-09-08T00:22:05;7.40;;;5.57;;
4933;SDS011;2482;49.154;8.254;2023-09-08T00:24:33;10.13;;;5.90;;
4933;SDS011;2482;49.154;8.254;2023-09-08T00:27:00;7.73;;;5.87;;
4933;SDS011;2482;49.154;8.254;2023-09-08T00:29:28;12.17;;;5.60;;
4933;SDS011;2482;49.154;8.254;2023-09-08T00:31:55;8.60;;;5.57;;
4933;SDS011;2482;49.154;8.254;2023-09-08T00:34:23;6.20;;;5.00;;
4933;SDS011;2482;49.154;8.254;2023-09-08T00:36:49;6.50;;;5.07;;
4933;SDS011;2482;49.154;8.254;2023-09-08T00:39:18;5.47;;;4.63;;
4933;SDS011;2482;49.154;8.254;2023-09-08T00:41:45;8.97;;;6.17;;
4933;SDS011;2482;49.154;8.254;2023-09-08T00:44:12;10.50;;;6.13;;
4933;SDS011;2482;49.154;8.254;2023-09-08T00:46:40;10.53;;;5.73;;
4933;SDS011;2482;49.154;8.254;2023-09-08T00:49:07;7.27;;;6.30;;
4933;SDS011;2482;49.154;8.254;2023-09-08T00:51:35;10.23;;;5.83;;
4933;SDS011;2482;49.154;8.254;2023-09-08T00:54:05;8.90;;;5.80;;
4933;SDS011;2482;49.154;8.254;2023-09-08T00:56:33;9.87;;;5.83;;
4933;SDS011;2482;49.154;8.254;2023-09-08T00:59:01;8.50;;;6.20;;
4933;SDS011;2482;49.154;8.254;2023-09-08T01:01:29;7.63;;;6.20;;
4933;SDS011;2482;49.154;8.254;2023-09-08T01:03:57;10.80;;;5.40;;
4933;SDS011;2482;49.154;8.254;2023-09-08T01:06:24;8.07;;;6.33;;
4933;SDS011;2482;49.154;8.254;2023-09-08T01:08:53;8.87;;;5.70;;
4933;SDS011;2482;49.154;8.254;2023-09-08T01:11:21;7.73;;;5.60;;
4933;SDS011;2482;49.154;8.254;2023-09-08T01:13:48;8.90;;;6.37;;
4933;SDS011;2482;49.154;8.254;2023-09-08T01:16:16;9.17;;;6.20;;
4933;SDS011;2482;49.154;8.254;2023-09-08T01:18:43;7.07;;;5.83;;
4933;SDS011;2482;49.154;8.254;2023-09-08T01:27:26;9.50;;;6.83;;
4933;SDS011;2482;49.154;8.254;2023-09-08T01:29:55;9.80;;;6.10;;
4933;SDS011;2482;49.154;8.254;2023-09-08T01:32:23;7.10;;;6.10;;
4933;SDS011;2482;49.154;8.254;2023-09-08T01:34:51;11.83;;;6.90;;
4933;SDS011;2482;49.154;8.254;2023-09-08T01:37:18;10.40;;;6.50;;
4933;SDS011;2482;49.154;8.254;2023-09-08T01:39:49;8.60;;;6.53;;
4933;SDS011;2482;49.154;8.254;2023-09-08T01:42:16;7.80;;;6.00;;
4933;SDS011;2482;49.154;8.254;2023-09-08T01:44:43;9.30;;;7.07;;
4933;SDS011;2482;49.154;8.254;2023-09-08T01:47:11;11.20;;;7.20;;
4933;SDS011;2482;49.154;8.254;2023-09-08T01:49:38;9.10;;;6.53;;
4933;SDS011;2482;49.154;8.254;2023-09-08T01:52:05;8.47;;;6.90;;
4933;SDS011;2482;49.154;8.254;2023-09-08T01:54:32;7.43;;;6.70;;
4933;SDS011;2482;49.154;8.254;2023-09-08T01:57:00;7.20;;;6.50;;
4933;SDS011;2482;49.154;8.254;2023-09-08T01:59:26;6.63;;;5.93;;
4933;SDS011;2482;49.154;8.254;2023-09-08T02:01:53;7.33;;;6.20;;
4933;SDS011;2482;49.154;8.254;2023-09-08T02:04:21;9.73;;;6.93;;
4933;SDS011;2482;49.154;8.254;2023-09-08T02:06:48;9.80;;;6.37;;
4933;SDS011;2482;49.154;8.254;2023-09-08T02:09:15;11.07;;;6.90;;
4933;SDS011;2482;49.154;8.254;2023-09-08T02:11:42;16.33;;;6.30;;
4933;SDS011;2482;49.154;8.254;2023-09-08T02:14:09;7.40;;;6.53;;
4933;SDS011;2482;49.154;8.254;2023-09-08T02:16:36;8.10;;;7.10;;
4933;SDS011;2482;49.154;8.254;2023-09-08T02:19:03;9.50;;;6.63;;
4933;SDS011;2482;49.154;8.254;2023-09-08T02:21:30;8.07;;;6.90;;
4933;SDS011;2482;49.154;8.254;2023-09-08T02:23:59;9.73;;;6.80;;
4933;SDS011;2482;49.154;8.254;2023-09-08T02:26:26;7.67;;;6.70;;
4933;SDS011;2482;49.154;8.254;2023-09-08T02:28:54;9.53;;;6.87;;
4933;SDS011;2482;49.154;8.254;2023-09-08T02:31:21;7.57;;;6.60;;
4933;SDS011;2482;49.154;8.254;2023-09-08T02:33:48;8.30;;;7.07;;
4933;SDS011;2482;49.154;8.254;2023-09-08T02:36:15;8.17;;;6.50;;
4933;SDS011;2482;49.154;8.254;2023-09-08T02:38:42;10.17;;;6.70;;
4933;SDS011;2482;49.154;8.254;2023-09-08T02:41:09;11.70;;;7.00;;
4933;SDS011;2482;49.154;8.254;2023-09-08T02:43:36;8.63;;;7.00;;
4933;SDS011;2482;49.154;8.254;2023-09-08T02:46:03;9.73;;;7.00;;
4933;SDS011;2482;49.154;8.254;2023-09-08T02:48:30;10.77;;;6.50;;
4933;SDS011;2482;49.154;8.254;2023-09-08T02:50:57;7.40;;;6.60;;
4933;SDS011;2482;49.154;8.254;2023-09-08T02:53:24;7.50;;;6.70;;
4933;SDS011;2482;49.154;8.254;2023-09-08T02:55:56;12.67;;;7.13;;
4933;SDS011;2482;49.154;8.254;2023-09-08T02:58:26;7.00;;;6.00;;
4933;SDS011;2482;49.154;8.254;2023-09-08T03:00:54;10.70;;;6.27;;
4933;SDS011;2482;49.154;8.254;2023-09-08T03:03:21;7.80;;;6.43;;
4933;SDS011;2482;49.154;8.254;2023-09-08T03:05:48;8.97;;;6.97;;
4933;SDS011;2482;49.154;8.254;2023-09-08T03:08:22;8.73;;;7.23;;
4933;SDS011;2482;49.154;8.254;2023-09-08T03:10:50;12.93;;;6.50;;
4933;SDS011;2482;49.154;8.254;2023-09-08T03:13:22;8.30;;;6.77;;
4933;SDS011;2482;49.154;8.254;2023-09-08T03:15:48;14.90;;;6.83;;
4933;SDS011;2482;49.154;8.254;2023-09-08T03:18:17;9.33;;;6.67;;
4933;SDS011;2482;49.154;8.254;2023-09-08T03:20:48;12.70;;;6.83;;
4933;SDS011;2482;49.154;8.254;2023-09-08T03:23:16;14.30;;;6.63;;
4933;SDS011;2482;49.154;8.254;2023-09-08T03:25:43;11.20;;;8.10;;
4933;SDS011;2482;49.154;8.254;2023-09-08T03:28:11;9.43;;;7.00;;
4933;SDS011;2482;49.154;8.254;2023-09-08T03:30:38;11.87;;;7.30;;
4933;SDS011;2482;49.154;8.254;2023-09-08T03:33:05;13.50;;;7.20;;
4933;SDS011;2482;49.154;8.254;2023-09-08T03:35:32;8.33;;;7.10;;
4933;SDS011;2482;49.154;8.254;2023-09-08T03:37:59;11.60;;;6.97;;
4933;SDS011;2482;49.154;8.254;2023-09-08T03:40:26;10.60;;;7.40;;
4933;SDS011;2482;49.154;8.254;2023-09-08T03:42:53;8.70;;;6.90;;
4933;SDS011;2482;49.154;8.254;2023-09-08T03:45:20;8.97;;;7.07;;
4933;SDS011;2482;49.154;8.254;2023-09-08T03:47:48;9.23;;;6.80;;
4933;SDS011;2482;49.154;8.254;2023-09-08T03:50:15;7.53;;;6.77;;
4933;SDS011;2482;49.154;8.254;2023-09-08T03:52:42;10.07;;;6.80;;
4933;SDS011;2482;49.154;8.254;2023-09-08T03:55:09;8.50;;;7.23;;
4933;SDS011;2482;49.154;8.254;2023-09-08T03:57:36;8.90;;;7.53;;
4933;SDS011;2482;49.154;8.254;2023-09-08T04:00:03;7.80;;;6.73;;
4933;SDS011;2482;49.154;8.254;2023-09-08T04:02:32;10.07;;;6.67;;
4933;SDS011;2482;49.154;8.254;2023-09-08T04:05:00;10.90;;;7.27;;
4933;SDS011;2482;49.154;8.254;2023-09-08T04:07:27;9.50;;;7.43;;
4933;SDS011;2482;49.154;8.254;2023-09-08T04:09:54;7.70;;;6.43;;
4933;SDS011;2482;49.154;8.254;2023-09-08T04:12:21;11.50;;;6.73;;
4933;SDS011;2482;49.154;8.254;2023-09-08T04:14:48;10.00;;;7.63;;
4933;SDS011;2482;49.154;8.254;2023-09-08T04:17:15;10.83;;;7.20;;
4933;SDS011;2482;49.154;8.254;2023-09-08T04:19:42;9.57;;;7.40;;
4933;SDS011;2482;49.154;8.254;2023-09-08T04:22:10;8.50;;;6.73;;
4933;SDS011;2482;49.154;8.254;2023-09-08T04:24:37;10.93;;;6.80;;
4933;SDS011;2482;49.154;8.254;2023-09-08T04:27:04;11.03;;;7.20;;
4933;SDS011;2482;49.154;8.254;2023-09-08T04:29:32;8.93;;;7.30;;
4933;SDS011;2482;49.154;8.254;2023-09-08T04:31:59;11.40;;;6.93;;
4933;SDS011;2482;49.154;8.254;2023-09-08T04:34:26;8.67;;;6.80;;
4933;SDS011;2482;49.154;8.254;2023-09-08T04:36:53;10.17;;;6.63;;
4933;SDS011;2482;49.154;8.254;2023-09-08T04:39:20;8.40;;;7.00;;
4933;SDS011;2482;49.154;8.254;2023-09-08T04:41:48;8.50;;;7.40;;
4933;SDS011;2482;49.154;8.254;2023-09-08T04:44:15;7.87;;;7.07;;
4933;SDS011;2482;49.154;8.254;2023-09-08T04:46:42;16.70;;;7.73;;
4933;SDS011;2482;49.154;8.254;2023-09-08T04:49:09;8.40;;;7.17;;
4933;SDS011;2482;49.154;8.254;2023-09-08T04:51:36;10.90;;;7.80;;
4933;SDS011;2482;49.154;8.254;2023-09-08T04:54:03;8.03;;;6.90;;
4933;SDS011;2482;49.154;8.254;2023-09-08T04:56:30;9.33;;;7.67;;
4933;SDS011;2482;49.154;8.254;2023-09-08T04:58:57;12.90;;;7.10;;
4933;SDS011;2482;49.154;8.254;2023-09-08T05:01:27;11.13;;;7.60;;
4933;SDS011;2482;49.154;8.254;2023-09-08T05:03:56;9.60;;;7.00;;
4933;SDS011;2482;49.154;8.254;2023-09-08T05:06:23;9.90;;;7.30;;
4933;SDS011;2482;49.154;8.254;2023-09-08T05:08:51;11.90;;;7.03;;
4933;SDS011;2482;49.154;8.254;2023-09-08T05:11:18;8.90;;;7.30;;
4933;SDS011;2482;49.154;8.254;2023-09-08T05:13:48;8.90;;;7.00;;
4933;SDS011;2482;49.154;8.254;2023-09-08T05:16:16;11.33;;;7.07;;
4933;SDS011;2482;49.154;8.254;2023-09-08T05:18:45;8.50;;;7.00;;
4933;SDS011;2482;49.154;8.254;2023-09-08T05:21:18;8.00;;;6.80;;
4933;SDS011;2482;49.154;8.254;2023-09-08T05:23:45;10.77;;;7.23;;
4933;SDS011;2482;49.154;8.254;2023-09-08T05:26:13;9.03;;;7.80;;
4933;SDS011;2482;49.154;8.254;2023-09-08T05:28:40;10.83;;;7.40;;
4933;SDS011;2482;49.154;8.254;2023-09-08T05:31:09;7.60;;;6.17;;
4933;SDS011;2482;49.154;8.254;2023-09-08T05:33:36;12.00;;;7.10;;
4933;SDS011;2482;49.154;8.254;2023-09-08T05:36:04;10.00;;;6.57;;
4933;SDS011;2482;49.154;8.254;2023-09-08T05:38:31;8.47;;;6.57;;
4933;SDS011;2482;49.154;8.254;2023-09-08T05:40:58;8.53;;;6.10;;
4933;SDS011;2482;49.154;8.254;2023-09-08T05:43:25;7.87;;;6.53;;
4933;SDS011;2482;49.154;8.254;2023-09-08T05:45:52;6.97;;;6.00;;
4933;SDS011;2482;49.154;8.254;2023-09-08T05:48:19;7.20;;;6.27;;
4933;SDS011;2482;49.154;8.254;2023-09-08T05:50:46;11.60;;;7.03;;
4933;SDS011;2482;49.154;8.254;2023-09-08T05:53:14;11.47;;;7.57;;
4933;SDS011;2482;49.154;8.254;2023-09-08T05:55:41;7.23;;;6.50;;
4933;SDS011;2482;49.154;8.254;2023-09-08T05:58:08;9.10;;;7.10;;
4933;SDS011;2482;49.154;8.254;2023-09-08T06:00:35;9.43;;;7.03;;
4933;SDS011;2482;49.154;8.254;2023-09-08T06:03:02;8.07;;;7.20;;
4933;SDS011;2482;49.154;8.254;2023-09-08T06:05:29;7.30;;;6.60;;
4933;SDS011;2482;49.154;8.254;2023-09-08T06:07:57;11.30;;;7.00;;
4933;SDS011;2482;49.154;8.254;2023-09-08T06:10:32;12.90;;;7.10;;
4933;SDS011;2482;49.154;8.254;2023-09-08T06:12:59;8.20;;;6.57;;
4933;SDS011;2482;49.154;8.254;2023-09-08T06:15:28;8.00;;;6.67;;
4933;SDS011;2482;49.154;8.254;2023-09-08T06:17:55;11.10;;;6.77;;
4933;SDS011;2482;49.154;8.254;2023-09-08T06:20:22;7.10;;;6.40;;
4933;SDS011;2482;49.154;8.254;2023-09-08T06:22:51;9.40;;;6.70;;
4933;SDS011;2482;49.154;8.254;2023-09-08T06:25:18;13.63;;;7.20;;
4933;SDS011;2482;49.154;8.254;2023-09-08T06:27:45;8.53;;;6.50;;
4933;SDS011;2482;49.154;8.254;2023-09-08T06:30:12;7.13;;;6.43;;
4933;SDS011;2482;49.154;8.254;2023-09-08T06:32:44;10.00;;;7.30;;
4933;SDS011;2482;49.154;8.254;2023-09-08T06:35:11;11.23;;;7.17;;
4933;SDS011;2482;49.154;8.254;2023-09-08T06:37:38;10.23;;;7.17;;
4933;SDS011;2482;49.154;8.254;2023-09-08T06:40:05;10.67;;;6.70;;
4933;SDS011;2482;49.154;8.254;2023-09-08T06:42:33;10.50;;;6.90;;
4933;SDS011;2482;49.154;8.254;2023-09-08T06:45:01;8.00;;;6.40;;
4933;SDS011;2482;49.154;8.254;2023-09-08T06:47:28;10.03;;;7.30;;
4933;SDS011;2482;49.154;8.254;2023-09-08T06:49:55;13.17;;;7.20;;
4933;SDS011;2482;49.154;8.254;2023-09-08T06:52:22;20.73;;;8.13;;
4933;SDS011;2482;49.154;8.254;2023-09-08T06:54:49;10.20;;;7.37;;
4933;SDS011;2482;49.154;8.254;2023-09-08T06:57:18;10.90;;;7.80;;
4933;SDS011;2482;49.154;8.254;2023-09-08T06:59:48;8.80;;;7.00;;
4933;SDS011;2482;49.154;8.254;2023-09-08T07:02:15;10.40;;;8.07;;
4933;SDS011;2482;49.154;8.254;2023-09-08T07:04:42;12.93;;;8.00;;
4933;SDS011;2482;49.154;8.254;2023-09-08T07:07:09;12.23;;;8.23;;
4933;SDS011;2482;49.154;8.254;2023-09-08T07:09:37;14.80;;;8.23;;
4933;SDS011;2482;49.154;8.254;2023-09-08T07:12:04;12.00;;;7.80;;
4933;SDS011;2482;49.154;8.254;2023-09-08T07:14:32;15.20;;;8.57;;
4933;SDS011;2482;49.154;8.254;2023-09-08T07:16:59;13.57;;;7.70;;
4933;SDS011;2482;49.154;8.254;2023-09-08T07:19:27;11.50;;;8.20;;
4933;SDS011;2482;49.154;8.254;2023-09-08T07:21:54;21.33;;;8.23;;
4933;SDS011;2482;49.154;8.254;2023-09-08T07:24:21;14.60;;;7.90;;
4933;SDS011;2482;49.154;8.254;2023-09-08T07:26:48;14.03;;;7.60;;
4933;SDS011;2482;49.154;8.254;2023-09-08T07:29:15;11.50;;;6.70;;
4933;SDS011;2482;49.154;8.254;2023-09-08T07:31:42;11.50;;;6.43;;
4933;SDS011;2482;49.154;8.254;2023-09-08T07:34:09;18.17;;;6.87;;
4933;SDS011;2482;49.154;8.254;2023-09-08T07:36:36;7.87;;;6.20;;
4933;SDS011;2482;49.154;8.254;2023-09-08T07:39:03;11.10;;;6.50;;
4933;SDS011;2482;49.154;8.254;2023-09-08T07:41:31;7.10;;;5.73;;
4933;SDS011;2482;49.154;8.254;2023-09-08T07:43:57;9.40;;;7.10;;
4933;SDS011;2482;49.154;8.254;2023-09-08T07:46:25;11.40;;;6.37;;
4933;SDS011;2482;49.154;8.254;2023-09-08T07:48:52;6.63;;;5.93;;
4933;SDS011;2482;49.154;8.254;2023-09-08T07:51:19;8.27;;;6.13;;
4933;SDS011;2482;49.154;8.254;2023-09-08T07:53:46;8.60;;;6.40;;
4933;SDS011;2482;49.154;8.254;2023-09-08T07:56:13;7.30;;;6.10;;
4933;SDS011;2482;49.154;8.254;2023-09-08T07:58:40;9.60;;;6.50;;
4933;SDS011;2482;49.154;8.254;2023-09-08T08:01:07;6.97;;;5.90;;
4933;SDS011;2482;49.154;8.254;2023-09-08T08:03:35;6.87;;;6.00;;
4933;SDS011;2482;49.154;8.254;2023-09-08T08:06:02;8.93;;;6.20;;
4933;SDS011;2482;49.154;8.254;2023-09-08T08:08:29;15.10;;;6.07;;
4933;SDS011;2482;49.154;8.254;2023-09-08T08:10:57;8.73;;;5.90;;
4933;SDS011;2482;49.154;8.254;2023-09-08T08:13:25;6.77;;;6.07;;
4933;SDS011;2482;49.154;8.254;2023-09-08T08:15:52;8.90;;;6.03;;
4933;SDS011;2482;49.154;8.254;2023-09-08T08:18:19;7.97;;;6.50;;
4933;SDS011;2482;49.154;8.254;2023-09-08T08:20:47;9.50;;;6.43;;
4933;SDS011;2482;49.154;8.254;2023-09-08T08:23:14;11.07;;;5.90;;
4933;SDS011;2482;49.154;8.254;2023-09-08T08:25:41;8.00;;;7.10;;
4933;SDS011;2482;49.154;8.254;2023-09-08T08:28:08;7.30;;;6.00;;
4933;SDS011;2482;49.154;8.254;2023-09-08T08:30:35;6.87;;;6.00;;
4933;SDS011;2482;49.154;8.254;2023-09-08T08:33:03;10.87;;;5.90;;
4933;SDS011;2482;49.154;8.254;2023-09-08T08:35:30;10.33;;;5.70;;
4933;SDS011;2482;49.154;8.254;2023-09-08T08:37:58;9.90;;;6.40;;
4933;SDS011;2482;49.154;8.254;2023-09-08T08:40:26;10.57;;;6.53;;
4933;SDS011;2482;49.154;8.254;2023-09-08T08:42:55;8.67;;;6.23;;
4933;SDS011;2482;49.154;8.254;2023-09-08T08:45:27;11.73;;;6.13;;
4933;SDS011;2482;49.154;8.254;2023-09-08T08:47:56;11.13;;;6.20;;
4933;SDS011;2482;49.154;8.254;2023-09-08T08:50:25;9.33;;;6.10;;
4933;SDS011;2482;49.154;8.254;2023-09-08T08:52:53;7.77;;;6.73;;
4933;SDS011;2482;49.154;8.254;2023-09-08T08:55:20;9.60;;;6.30;;
4933;SDS011;2482;49.154;8.254;2023-09-08T08:57:48;8.13;;;5.80;;
4933;SDS011;2482;49.154;8.254;2023-09-08T09:00:16;12.00;;;7.10;;
4933;SDS011;2482;49.154;8.254;2023-09-08T09:02:45;11.10;;;6.30;;
4933;SDS011;2482;49.154;8.254;2023-09-08T09:05:16;7.47;;;6.63;;
4933;SDS011;2482;49.154;8.254;2023-09-08T09:07:44;6.47;;;5.77;;
4933;SDS011;2482;49.154;8.254;2023-09-08T09:10:11;7.60;;;6.43;;
4933;SDS011;2482;49.154;8.254;2023-09-08T09:12:40;6.53;;;5.83;;
4933;SDS011;2482;49.154;8.254;2023-09-08T09:15:07;7.10;;;6.30;;
4933;SDS011;2482;49.154;8.254;2023-09-08T09:17:35;7.23;;;5.20;;
4933;SDS011;2482;49.154;8.254;2023-09-08T09:20:15;6.50;;;5.83;;
4933;SDS011;2482;49.154;8.254;2023-09-08T09:22:46;11.93;;;6.57;;
4933;SDS011;2482;49.154;8.254;2023-09-08T09:25:25;6.90;;;5.57;;
4933;SDS011;2482;49.154;8.254;2023-09-08T09:27:56;6.53;;;5.63;;
4933;SDS011;2482;49.154;8.254;2023-09-08T09:30:45;10.67;;;6.00;;
4933;SDS011;2482;49.154;8.254;2023-09-08T09:33:15;6.23;;;5.33;;
4933;SDS011;2482;49.154;8.254;2023-09-08T09:35:46;6.70;;;5.63;;
4933;SDS011;2482;49.154;8.254;2023-09-08T09:38:18;7.00;;;5.13;;
4933;SDS011;2482;49.154;8.254;2023-09-08T09:40:47;6.90;;;6.20;;
4933;SDS011;2482;49.154;8.254;2023-09-08T09:43:16;9.57;;;6.50;;
4933;SDS011;2482;49.154;8.254;2023-09-08T09:45:44;6.23;;;5.63;;
4933;SDS011;2482;49.154;8.254;2023-09-08T09:48:11;10.10;;;5.90;;
4933;SDS011;2482;49.154;8.254;2023-09-08T09:50:39;9.13;;;5.77;;
4933;SDS011;2482;49.154;8.254;2023-09-08T09:53:14;6.67;;;6.07;;
4933;SDS011;2482;49.154;8.254;2023-09-08T09:55:43;7.30;;;5.70;;
4933;SDS011;2482;49.154;8.254;2023-09-08T09:58:11;6.83;;;6.17;;
4933;SDS011;2482;49.154;8.254;2023-09-08T10:00:40;8.73;;;5.10;;
4933;SDS011;2482;49.154;8.254;2023-09-08T10:03:08;11.50;;;5.70;;
4933;SDS011;2482;49.154;8.254;2023-09-08T10:05:36;6.33;;;5.70;;
4933;SDS011;2482;49.154;8.254;2023-09-08T10:08:04;11.70;;;6.20;;
4933;SDS011;2482;49.154;8.254;2023-09-08T10:10:32;7.60;;;6.03;;
4933;SDS011;2482;49.154;8.254;2023-09-08T10:13:05;8.10;;;6.33;;
4933;SDS011;2482;49.154;8.254;2023-09-08T10:15:34;9.73;;;5.90;;
4933;SDS011;2482;49.154;8.254;2023-09-08T10:18:03;10.93;;;6.70;;
4933;SDS011;2482;49.154;8.254;2023-09-08T10:20:32;7.57;;;6.20;;
4933;SDS011;2482;49.154;8.254;2023-09-08T10:25:34;8.10;;;6.57;;
4933;SDS011;2482;49.154;8.254;2023-09-08T10:28:12;8.53;;;6.80;;
4933;SDS011;2482;49.154;8.254;2023-09-08T10:30:39;8.60;;;5.73;;
4933;SDS011;2482;49.154;8.254;2023-09-08T10:33:08;7.77;;;5.60;;
4933;SDS011;2482;49.154;8.254;2023-09-08T10:35:36;11.37;;;6.20;;
4933;SDS011;2482;49.154;8.254;2023-09-08T10:40:51;6.33;;;5.73;;
4933;SDS011;2482;49.154;8.254;2023-09-08T10:43:19;9.33;;;6.00;;
4933;SDS011;2482;49.154;8.254;2023-09-08T10:45:46;6.47;;;5.87;;
4933;SDS011;2482;49.154;8.254;2023-09-08T10:48:14;10.90;;;6.07;;
4933;SDS011;2482;49.154;8.254;2023-09-08T10:50:42;6.87;;;5.30;;
4933;SDS011;2482;49.154;8.254;2023-09-08T10:53:13;6.00;;;5.50;;
4933;SDS011;2482;49.154;8.254;2023-09-08T10:55:42;6.53;;;5.67;;
4933;SDS011;2482;49.154;8.254;2023-09-08T10:58:37;7.00;;;5.40;;
4933;SDS011;2482;49.154;8.254;2023-09-08T11:01:15;8.90;;;5.60;;
4933;SDS011;2482;49.154;8.254;2023-09-08T11:03:53;7.43;;;5.60;;
4933;SDS011;2482;49.154;8.254;2023-09-08T11:06:20;6.17;;;5.57;;
4933;SDS011;2482;49.154;8.254;2023-09-08T11:08:49;10.60;;;5.90;;
4933;SDS011;2482;49.154;8.254;2023-09-08T11:11:22;6.43;;;5.83;;
4933;SDS011;2482;49.154;8.254;2023-09-08T11:13:49;6.33;;;5.73;;
4933;SDS011;2482;49.154;8.254;2023-09-08T11:16:16;6.47;;;5.47;;
4933;SDS011;2482;49.154;8.254;2023-09-08T11:18:52;6.43;;;5.67;;
4933;SDS011;2482;49.154;8.254;2023-09-08T11:21:20;8.70;;;6.00;;
4933;SDS011;2482;49.154;8.254;2023-09-08T11:23:47;10.30;;;5.87;;
4933;SDS011;2482;49.154;8.254;2023-09-08T11:26:14;6.00;;;5.40;;
4933;SDS011;2482;49.154;8.254;2023-09-08T11:28:43;7.60;;;5.40;;
4933;SDS011;2482;49.154;8.254;2023-09-08T11:31:11;6.63;;;5.40;;
4933;SDS011;2482;49.154;8.254;2023-09-08T11:33:39;6.27;;;5.67;;
4933;SDS011;2482;49.154;8.254;2023-09-08T11:36:13;6.33;;;5.63;;
4933;SDS011;2482;49.154;8.254;2023-09-08T11:38:42;7.57;;;5.93;;
4933;SDS011;2482;49.154;8.254;2023-09-08T11:41:11;11.20;;;6.17;;
4933;SDS011;2482;49.154;8.254;2023-09-08T11:43:39;7.50;;;6.10;;
4933;SDS011;2482;49.154;8.254;2023-09-08T11:46:06;8.87;;;5.60;;
4933;SDS011;2482;49.154;8.254;2023-09-08T11:48:33;8.40;;;5.70;;
4933;SDS011;2482;49.154;8.254;2023-09-08T11:51:02;8.97;;;5.50;;
4933;SDS011;2482;49.154;8.254;2023-09-08T11:53:29;6.80;;;6.20;;
4933;SDS011;2482;49.154;8.254;2023-09-08T11:55:59;7.77;;;5.90;;
4933;SDS011;2482;49.154;8.254;2023-09-08T11:58:27;7.87;;;5.53;;
4933;SDS011;2482;49.154;8.254;2023-09-08T12:00:54;6.90;;;5.40;;
4933;SDS011;2482;49.154;8.254;2023-09-08T12:03:21;19.93;;;5.60;;
4933;SDS011;2482;49.154;8.254;2023-09-08T12:05:52;13.03;;;4.77;;
4933;SDS011;2482;49.154;8.254;2023-09-08T12:08:19;6.03;;;5.43;;
4933;SDS011;2482;49.154;8.254;2023-09-08T12:10:46;8.63;;;5.43;;
4933;SDS011;2482;49.154;8.254;2023-09-08T12:13:15;8.10;;;5.03;;
4933;SDS011;2482;49.154;8.254;2023-09-08T12:15:51;5.17;;;4.67;;
4933;SDS011;2482;49.154;8.254;2023-09-08T12:18:19;5.60;;;5.10;;
4933;SDS011;2482;49.154;8.254;2023-09-08T12:21:03;5.80;;;4.93;;
4933;SDS011;2482;49.154;8.254;2023-09-08T12:23:32;5.57;;;5.07;;
4933;SDS011;2482;49.154;8.254;2023-09-08T12:25:58;7.53;;;5.93;;
4933;SDS011;2482;49.154;8.254;2023-09-08T12:28:29;5.87;;;4.73;;
4933;SDS011;2482;49.154;8.254;2023-09-08T12:30:58;8.33;;;4.60;;
4933;SDS011;2482;49.154;8.254;2023-09-08T12:33:25;7.80;;;5.30;;
4933;SDS011;2482;49.154;8.254;2023-09-08T12:35:53;8.47;;;5.40;;
4933;SDS011;2482;49.154;8.254;2023-09-08T12:38:20;5.30;;;4.60;;
4933;SDS011;2482;49.154;8.254;2023-09-08T12:40:47;8.13;;;4.80;;
4933;SDS011;2482;49.154;8.254;2023-09-08T12:43:14;6.17;;;5.30;;
4933;SDS011;2482;49.154;8.254;2023-09-08T12:45:54;4.53;;;4.13;;
4933;SDS011;2482;49.154;8.254;2023-09-08T12:48:22;8.50;;;4.93;;
4933;SDS011;2482;49.154;8.254;2023-09-08T12:50:50;8.83;;;4.33;;
4933;SDS011;2482;49.154;8.254;2023-09-08T12:53:17;8.60;;;4.40;;
4933;SDS011;2482;49.154;8.254;2023-09-08T12:55:45;5.00;;;4.20;;
4933;SDS011;2482;49.154;8.254;2023-09-08T12:58:13;4.53;;;4.13;;
4933;SDS011;2482;49.154;8.254;2023-09-08T13:00:40;4.50;;;4.13;;
4933;SDS011;2482;49.154;8.254;2023-09-08T13:03:07;5.27;;;4.87;;
4933;SDS011;2482;49.154;8.254;2023-09-08T13:05:35;5.57;;;4.97;;
4933;SDS011;2482;49.154;8.254;2023-09-08T13:08:05;5.63;;;4.10;;
4933;SDS011;2482;49.154;8.254;2023-09-08T13:10:32;5.13;;;4.67;;
4933;SDS011;2482;49.154;8.254;2023-09-08T13:13:00;4.70;;;4.20;;
4933;SDS011;2482;49.154;8.254;2023-09-08T13:15:27;6.03;;;4.40;;
4933;SDS011;2482;49.154;8.254;2023-09-08T13:17:54;7.50;;;5.30;;
4933;SDS011;2482;49.154;8.254;2023-09-08T13:20:22;7.93;;;4.60;;
4933;SDS011;2482;49.154;8.254;2023-09-08T13:22:49;9.47;;;4.80;;
4933;SDS011;2482;49.154;8.254;2023-09-08T13:25:16;8.57;;;4.57;;
4933;SDS011;2482;49.154;8.254;2023-09-08T13:27:43;6.30;;;5.30;;
4933;SDS011;2482;49.154;8.254;2023-09-08T13:30:14;7.53;;;4.87;;
4933;SDS011;2482;49.154;8.254;2023-09-08T13:32:42;5.33;;;4.80;;
4933;SDS011;2482;49.154;8.254;2023-09-08T13:35:11;9.63;;;4.50;;
4933;SDS011;2482;49.154;8.254;2023-09-08T13:37:38;7.20;;;4.83;;
4933;SDS011;2482;49.154;8.254;2023-09-08T13:40:06;8.70;;;4.73;;
4933;SDS011;2482;49.154;8.254;2023-09-08T13:42:35;5.27;;;4.77;;
4933;SDS011;2482;49.154;8.254;2023-09-08T13:45:02;5.80;;;5.20;;
4933;SDS011;2482;49.154;8.254;2023-09-08T13:47:30;5.23;;;4.73;;
4933;SDS011;2482;49.154;8.254;2023-09-08T13:49:59;4.93;;;4.50;;
4933;SDS011;2482;49.154;8.254;2023-09-08T13:52:30;6.33;;;4.70;;
4933;SDS011;2482;49.154;8.254;2023-09-08T13:55:01;6.17;;;5.20;;
4933;SDS011;2482;49.154;8.254;2023-09-08T13:57:37;9.10;;;4.90;;
4933;SDS011;2482;49.154;8.254;2023-09-08T14:00:07;5.60;;;4.60;;
4933;SDS011;2482;49.154;8.254;2023-09-08T14:02:42;5.03;;;4.43;;
4933;SDS011;2482;49.154;8.254;2023-09-08T14:05:16;5.57;;;5.07;;
4933;SDS011;2482;49.154;8.254;2023-09-08T14:07:52;7.20;;;4.80;;
4933;SDS011;2482;49.154;8.254;2023-09-08T14:10:32;6.20;;;4.50;;
4933;SDS011;2482;49.154;8.254;2023-09-08T14:13:02;10.87;;;4.90;;
4933;SDS011;2482;49.154;8.254;2023-09-08T14:15:29;6.47;;;4.57;;
4933;SDS011;2482;49.154;8.254;2023-09-08T14:17:56;7.67;;;4.43;;
4933;SDS011;2482;49.154;8.254;2023-09-08T14:20:23;10.43;;;4.33;;
4933;SDS011;2482;49.154;8.254;2023-09-08T14:22:50;8.43;;;4.63;;
4933;SDS011;2482;49.154;8.254;2023-09-08T14:25:17;5.43;;;4.53;;
4933;SDS011;2482;49.154;8.254;2023-09-08T14:27:44;4.70;;;4.23;;
4933;SDS011;2482;49.154;8.254;2023-09-08T14:30:11;5.30;;;4.57;;
4933;SDS011;2482;49.154;8.254;2023-09-08T14:32:38;9.33;;;4.57;;
4933;SDS011;2482;49.154;8.254;2023-09-08T14:35:06;6.93;;;5.00;;
4933;SDS011;2482;49.154;8.254;2023-09-08T14:37:33;13.37;;;4.90;;
4933;SDS011;2482;49.154;8.254;2023-09-08T14:40:00;5.60;;;5.10;;
4933;SDS011;2482;49.154;8.254;2023-09-08T14:42:27;6.93;;;4.77;;
4933;SDS011;2482;49.154;8.254;2023-09-08T14:44:55;4.53;;;4.13;;
4933;SDS011;2482;49.154;8.254;2023-09-08T14:47:22;4.83;;;4.43;;
4933;SDS011;2482;49.154;8.254;2023-09-08T14:49:49;5.10;;;4.57;;
4933;SDS011;2482;49.154;8.254;2023-09-08T14:52:16;6.47;;;4.60;;
4933;SDS011;2482;49.154;8.254;2023-09-08T14:54:46;7.23;;;4.67;;
4933;SDS011;2482;49.154;8.254;2023-09-08T14:57:13;5.23;;;4.33;;
4933;SDS011;2482;49.154;8.254;2023-09-08T14:59:40;6.17;;;5.17;;
4933;SDS011;2482;49.154;8.254;2023-09-08T15:02:08;5.87;;;5.10;;
4933;SDS011;2482;49.154;8.254;2023-09-08T15:04:36;7.57;;;4.73;;
4933;SDS011;2482;49.154;8.254;2023-09-08T15:07:03;6.20;;;5.20;;
4933;SDS011;2482;49.154;8.254;2023-09-08T15:09:30;7.70;;;4.93;;
4933;SDS011;2482;49.154;8.254;2023-09-08T15:11:57;7.30;;;4.67;;
4933;SDS011;2482;49.154;8.254;2023-09-08T15:14:24;7.47;;;5.00;;
4933;SDS011;2482;49.154;8.254;2023-09-08T15:16:51;5.30;;;4.80;;
4933;SDS011;2482;49.154;8.254;2023-09-08T15:19:19;7.83;;;4.50;;
4933;SDS011;2482;49.154;8.254;2023-09-08T15:21:46;9.60;;;4.60;;
4933;SDS011;2482;49.154;8.254;2023-09-08T15:24:12;5.37;;;4.83;;
4933;SDS011;2482;49.154;8.254;2023-09-08T15:26:39;9.97;;;4.90;;
4933;SDS011;2482;49.154;8.254;2023-09-08T15:29:06;5.13;;;4.63;;
4933;SDS011;2482;49.154;8.254;2023-09-08T15:31:34;5.43;;;4.93;;